sensor_id;sensor_type;location;lat;lon;timestamp;P1;durP1;ratioP1;P2;durP2;ratioP2
19113;SDS011;9689;51.052;13.772;2023-07-29T00:04:25;5.60;;;1.80;;
19113;SDS011;9689;51.052;13.772;2023-07-29T00:09:26;2.08;;;1.60;;
19113;SDS011;9689;51.052;13.772;2023-07-29T00:14:28;4.13;;;2.17;;
19113;SDS011;9689;51.052;13.772;2023-07-29T00:19:29;2.22;;;1.50;;
19113;SDS011;9689;51.052;13.772;2023-07-29T00:24:29;11.43;;;1.98;;
19113;SDS011;9689;51.052;13.772;2023-07-29T00:29:32;2.42;;;1.95;;
19113;SDS011;9689;51.052;13.772;2023-07-29T00:34:32;3.00;;;1.75;;
19113;SDS011;9689;51.052;13.772;2023-07-29T00:39:33;2.20;;;1.52;;
19113;SDS011;9689;51.052;13.772;2023-07-29T00:44:35;2.33;;;1.70;;
19113;SDS011;9689;51.052;13.772;2023-07-29T00:49:36;2.90;;;1.92;;
19113;SDS011;9689;51.052;13.772;2023-07-29T00:54:37;2.42;;;1.92;;
19113;SDS011;9689;51.052;13.772;2023-07-29T00:59:39;2.72;;;1.50;;
19113;SDS011;9689;51.052;13.772;2023-07-29T01:04:42;2.33;;;1.77;;
19113;SDS011;9689;51.052;13.772;2023-07-29T01:09:44;2.47;;;1.65;;
19113;SDS011;9689;51.052;13.772;2023-07-29T01:14:56;4.38;;;1.95;;
19113;SDS011;9689;51.052;13.772;2023-07-29T01:20:07;1.70;;;1.25;;
19113;SDS011;9689;51.052;13.772;2023-07-29T01:25:10;2.38;;;1.80;;
19113;SDS011;9689;51.052;13.772;2023-07-29T01:30:11;3.78;;;1.42;;
19113;SDS011;9689;51.052;13.772;2023-07-29T01:35:18;2.88;;;1.95;;
19113;SDS011;9689;51.052;13.772;2023-07-29T01:40:25;2.35;;;1.63;;
19113;SDS011;9689;51.052;13.772;2023-07-29T01:45:28;2.13;;;1.52;;
19113;SDS011;9689;51.052;13.772;2023-07-29T01:50:31;2.58;;;1.75;;
19113;SDS011;9689;51.052;13.772;2023-07-29T01:55:34;1.90;;;1.50;;
19113;SDS011;9689;51.052;13.772;2023-07-29T02:00:35;2.08;;;1.80;;
19113;SDS011;9689;51.052;13.772;2023-07-29T02:05:35;2.10;;;1.63;;
19113;SDS011;9689;51.052;13.772;2023-07-29T02:10:38;1.60;;;1.50;;
19113;SDS011;9689;51.052;13.772;2023-07-29T02:15:38;1.85;;;1.60;;
19113;SDS011;9689;51.052;13.772;2023-07-29T02:20:39;2.70;;;1.83;;
19113;SDS011;9689;51.052;13.772;2023-07-29T02:25:49;2.78;;;1.88;;
19113;SDS011;9689;51.052;13.772;2023-07-29T02:31:08;2.28;;;1.58;;
19113;SDS011;9689;51.052;13.772;2023-07-29T02:36:11;2.22;;;1.75;;
19113;SDS011;9689;51.052;13.772;2023-07-29T02:41:14;3.72;;;1.63;;
19113;SDS011;9689;51.052;13.772;2023-07-29T02:46:15;1.95;;;1.65;;
19113;SDS011;9689;51.052;13.772;2023-07-29T02:51:16;2.63;;;1.80;;
19113;SDS011;9689;51.052;13.772;2023-07-29T02:56:19;6.13;;;2.00;;
19113;SDS011;9689;51.052;13.772;2023-07-29T03:01:19;3.70;;;1.63;;
19113;SDS011;9689;51.052;13.772;2023-07-29T03:06:20;2.08;;;1.70;;
19113;SDS011;9689;51.052;13.772;2023-07-29T03:11:22;2.10;;;1.73;;
19113;SDS011;9689;51.052;13.772;2023-07-29T03:16:23;2.42;;;1.88;;
19113;SDS011;9689;51.052;13.772;2023-07-29T03:21:28;2.92;;;1.75;;
19113;SDS011;9689;51.052;13.772;2023-07-29T03:26:30;1.85;;;1.65;;
19113;SDS011;9689;51.052;13.772;2023-07-29T03:31:31;1.52;;;1.42;;
19113;SDS011;9689;51.052;13.772;2023-07-29T03:36:31;2.03;;;1.52;;
19113;SDS011;9689;51.052;13.772;2023-07-29T03:41:34;3.05;;;1.55;;
19113;SDS011;9689;51.052;13.772;2023-07-29T03:46:35;4.30;;;1.70;;
19113;SDS011;9689;51.052;13.772;2023-07-29T03:51:39;1.70;;;1.48;;
19113;SDS011;9689;51.052;13.772;2023-07-29T03:56:41;2.10;;;1.60;;
19113;SDS011;9689;51.052;13.772;2023-07-29T04:01:42;2.83;;;1.30;;
19113;SDS011;9689;51.052;13.772;2023-07-29T04:06:43;4.53;;;2.22;;
19113;SDS011;9689;51.052;13.772;2023-07-29T04:11:45;2.72;;;1.58;;
19113;SDS011;9689;51.052;13.772;2023-07-29T04:16:46;1.95;;;1.25;;
19113;SDS011;9689;51.052;13.772;2023-07-29T04:21:48;1.35;;;1.23;;
19113;SDS011;9689;51.052;13.772;2023-07-29T04:26:51;1.42;;;1.30;;
19113;SDS011;9689;51.052;13.772;2023-07-29T04:31:52;1.90;;;1.40;;
19113;SDS011;9689;51.052;13.772;2023-07-29T04:36:53;1.98;;;1.30;;
19113;SDS011;9689;51.052;13.772;2023-07-29T04:41:55;2.75;;;1.35;;
19113;SDS011;9689;51.052;13.772;2023-07-29T04:46:56;4.65;;;1.58;;
19113;SDS011;9689;51.052;13.772;2023-07-29T04:51:57;2.22;;;1.00;;
19113;SDS011;9689;51.052;13.772;2023-07-29T04:56:59;2.05;;;1.30;;
19113;SDS011;9689;51.052;13.772;2023-07-29T05:02:00;2.78;;;1.10;;
19113;SDS011;9689;51.052;13.772;2023-07-29T05:07:01;1.85;;;1.20;;
19113;SDS011;9689;51.052;13.772;2023-07-29T05:12:04;2.25;;;1.25;;
19113;SDS011;9689;51.052;13.772;2023-07-29T05:17:05;1.92;;;1.00;;
19113;SDS011;9689;51.052;13.772;2023-07-29T05:22:06;2.92;;;1.00;;
19113;SDS011;9689;51.052;13.772;2023-07-29T05:27:08;2.03;;;1.27;;
19113;SDS011;9689;51.052;13.772;2023-07-29T05:32:09;1.30;;;1.10;;
19113;SDS011;9689;51.052;13.772;2023-07-29T05:37:10;1.50;;;1.00;;
19113;SDS011;9689;51.052;13.772;2023-07-29T05:42:12;1.45;;;1.10;;
19113;SDS011;9689;51.052;13.772;2023-07-29T05:47:13;1.35;;;0.80;;
19113;SDS011;9689;51.052;13.772;2023-07-29T05:52:15;1.00;;;0.73;;
19113;SDS011;9689;51.052;13.772;2023-07-29T05:57:18;0.68;;;0.65;;
19113;SDS011;9689;51.052;13.772;2023-07-29T06:02:19;1.35;;;0.70;;
19113;SDS011;9689;51.052;13.772;2023-07-29T06:07:20;3.45;;;0.93;;
19113;SDS011;9689;51.052;13.772;2023-07-29T06:12:23;3.03;;;0.90;;
19113;SDS011;9689;51.052;13.772;2023-07-29T06:17:24;1.27;;;0.88;;
19113;SDS011;9689;51.052;13.772;2023-07-29T06:22:26;0.98;;;0.60;;
19113;SDS011;9689;51.052;13.772;2023-07-29T06:27:29;1.67;;;0.93;;
19113;SDS011;9689;51.052;13.772;2023-07-29T06:32:30;1.77;;;0.90;;
19113;SDS011;9689;51.052;13.772;2023-07-29T06:37:31;1.35;;;1.00;;
19113;SDS011;9689;51.052;13.772;2023-07-29T06:42:38;1.35;;;0.68;;
19113;SDS011;9689;51.052;13.772;2023-07-29T06:47:39;1.00;;;0.80;;
19113;SDS011;9689;51.052;13.772;2023-07-29T06:52:39;1.77;;;0.85;;
19113;SDS011;9689;51.052;13.772;2023-07-29T06:57:42;0.75;;;0.65;;
19113;SDS011;9689;51.052;13.772;2023-07-29T07:02:43;2.17;;;1.20;;
19113;SDS011;9689;51.052;13.772;2023-07-29T07:07:46;1.00;;;0.80;;
19113;SDS011;9689;51.052;13.772;2023-07-29T07:12:48;1.50;;;0.80;;
19113;SDS011;9689;51.052;13.772;2023-07-29T07:17:49;1.60;;;0.77;;
19113;SDS011;9689;51.052;13.772;2023-07-29T07:22:51;1.08;;;0.70;;
19113;SDS011;9689;51.052;13.772;2023-07-29T07:27:53;1.98;;;0.80;;
19113;SDS011;9689;51.052;13.772;2023-07-29T07:32:54;0.73;;;0.73;;
19113;SDS011;9689;51.052;13.772;2023-07-29T07:37:56;1.15;;;0.80;;
19113;SDS011;9689;51.052;13.772;2023-07-29T07:42:59;1.35;;;0.80;;
19113;SDS011;9689;51.052;13.772;2023-07-29T07:48:00;0.80;;;0.80;;
19113;SDS011;9689;51.052;13.772;2023-07-29T07:53:02;0.98;;;0.80;;
19113;SDS011;9689;51.052;13.772;2023-07-29T07:58:04;4.20;;;0.80;;
19113;SDS011;9689;51.052;13.772;2023-07-29T08:03:04;0.80;;;0.70;;
19113;SDS011;9689;51.052;13.772;2023-07-29T08:08:05;1.33;;;0.85;;
19113;SDS011;9689;51.052;13.772;2023-07-29T08:13:07;1.02;;;0.85;;
19113;SDS011;9689;51.052;13.772;2023-07-29T08:18:08;0.95;;;0.60;;
19113;SDS011;9689;51.052;13.772;2023-07-29T08:23:09;1.02;;;0.93;;
19113;SDS011;9689;51.052;13.772;2023-07-29T08:28:11;1.30;;;1.00;;
19113;SDS011;9689;51.052;13.772;2023-07-29T08:33:12;1.33;;;0.80;;
19113;SDS011;9689;51.052;13.772;2023-07-29T08:38:13;1.27;;;0.93;;
19113;SDS011;9689;51.052;13.772;2023-07-29T08:43:15;1.10;;;0.80;;
19113;SDS011;9689;51.052;13.772;2023-07-29T08:48:19;1.63;;;1.05;;
19113;SDS011;9689;51.052;13.772;2023-07-29T08:53:29;1.40;;;0.60;;
19113;SDS011;9689;51.052;13.772;2023-07-29T08:58:33;1.23;;;0.95;;
19113;SDS011;9689;51.052;13.772;2023-07-29T09:03:36;0.80;;;0.80;;
19113;SDS011;9689;51.052;13.772;2023-07-29T09:08:37;0.57;;;0.57;;
19113;SDS011;9689;51.052;13.772;2023-07-29T09:13:39;1.92;;;0.60;;
19113;SDS011;9689;51.052;13.772;2023-07-29T09:18:40;0.65;;;0.50;;
19113;SDS011;9689;51.052;13.772;2023-07-29T09:23:40;1.10;;;0.70;;
19113;SDS011;9689;51.052;13.772;2023-07-29T09:28:43;2.08;;;1.15;;
19113;SDS011;9689;51.052;13.772;2023-07-29T09:33:44;1.20;;;0.80;;
19113;SDS011;9689;51.052;13.772;2023-07-29T09:38:45;0.90;;;0.80;;
19113;SDS011;9689;51.052;13.772;2023-07-29T09:43:47;1.65;;;1.25;;
19113;SDS011;9689;51.052;13.772;2023-07-29T09:48:48;3.42;;;1.10;;
19113;SDS011;9689;51.052;13.772;2023-07-29T09:53:50;2.28;;;1.02;;
19113;SDS011;9689;51.052;13.772;2023-07-29T09:58:53;1.80;;;1.08;;
19113;SDS011;9689;51.052;13.772;2023-07-29T10:03:57;1.42;;;0.90;;
19113;SDS011;9689;51.052;13.772;2023-07-29T10:08:59;2.97;;;0.98;;
19113;SDS011;9689;51.052;13.772;2023-07-29T10:14:02;0.85;;;0.75;;
19113;SDS011;9689;51.052;13.772;2023-07-29T10:19:07;1.63;;;1.00;;
19113;SDS011;9689;51.052;13.772;2023-07-29T10:24:11;2.35;;;1.30;;
19113;SDS011;9689;51.052;13.772;2023-07-29T10:29:17;1.50;;;1.20;;
19113;SDS011;9689;51.052;13.772;2023-07-29T10:34:20;2.50;;;1.10;;
19113;SDS011;9689;51.052;13.772;2023-07-29T10:39:23;2.25;;;1.00;;
19113;SDS011;9689;51.052;13.772;2023-07-29T10:49:51;1.65;;;1.10;;
19113;SDS011;9689;51.052;13.772;2023-07-29T10:54:54;1.88;;;1.13;;
19113;SDS011;9689;51.052;13.772;2023-07-29T10:59:56;1.33;;;0.90;;
19113;SDS011;9689;51.052;13.772;2023-07-29T11:04:58;1.83;;;1.13;;
19113;SDS011;9689;51.052;13.772;2023-07-29T11:10:00;2.38;;;1.30;;
19113;SDS011;9689;51.052;13.772;2023-07-29T11:15:11;1.35;;;1.05;;
19113;SDS011;9689;51.052;13.772;2023-07-29T11:20:14;3.22;;;1.13;;
19113;SDS011;9689;51.052;13.772;2023-07-29T11:25:16;3.63;;;1.80;;
19113;SDS011;9689;51.052;13.772;2023-07-29T11:30:19;4.55;;;1.65;;
19113;SDS011;9689;51.052;13.772;2023-07-29T11:35:22;1.05;;;0.80;;
19113;SDS011;9689;51.052;13.772;2023-07-29T11:40:24;0.70;;;0.60;;
19113;SDS011;9689;51.052;13.772;2023-07-29T11:45:26;1.65;;;0.73;;
19113;SDS011;9689;51.052;13.772;2023-07-29T11:50:46;2.30;;;1.10;;
19113;SDS011;9689;51.052;13.772;2023-07-29T11:55:49;1.60;;;0.90;;
19113;SDS011;9689;51.052;13.772;2023-07-29T12:00:52;4.82;;;2.50;;
19113;SDS011;9689;51.052;13.772;2023-07-29T12:05:53;1.80;;;1.00;;
19113;SDS011;9689;51.052;13.772;2023-07-29T12:10:54;1.20;;;0.90;;
19113;SDS011;9689;51.052;13.772;2023-07-29T12:16:01;4.57;;;2.70;;
19113;SDS011;9689;51.052;13.772;2023-07-29T12:21:03;1.20;;;0.98;;
19113;SDS011;9689;51.052;13.772;2023-07-29T12:26:05;4.18;;;0.70;;
19113;SDS011;9689;51.052;13.772;2023-07-29T12:31:08;1.45;;;1.10;;
19113;SDS011;9689;51.052;13.772;2023-07-29T12:36:09;1.83;;;1.20;;
19113;SDS011;9689;51.052;13.772;2023-07-29T12:41:09;2.97;;;1.75;;
19113;SDS011;9689;51.052;13.772;2023-07-29T12:46:12;2.72;;;1.30;;
19113;SDS011;9689;51.052;13.772;2023-07-29T12:51:12;1.02;;;0.70;;
19113;SDS011;9689;51.052;13.772;2023-07-29T12:56:13;1.40;;;0.88;;
19113;SDS011;9689;51.052;13.772;2023-07-29T13:01:15;0.85;;;0.80;;
19113;SDS011;9689;51.052;13.772;2023-07-29T13:06:17;1.63;;;0.80;;
19113;SDS011;9689;51.052;13.772;2023-07-29T13:11:18;1.55;;;1.02;;
19113;SDS011;9689;51.052;13.772;2023-07-29T13:16:20;1.05;;;0.65;;
19113;SDS011;9689;51.052;13.772;2023-07-29T13:21:21;1.17;;;0.60;;
19113;SDS011;9689;51.052;13.772;2023-07-29T13:26:22;1.73;;;0.90;;
19113;SDS011;9689;51.052;13.772;2023-07-29T13:31:24;0.77;;;0.70;;
19113;SDS011;9689;51.052;13.772;2023-07-29T13:36:25;2.58;;;1.10;;
19113;SDS011;9689;51.052;13.772;2023-07-29T13:41:26;2.70;;;0.90;;
19113;SDS011;9689;51.052;13.772;2023-07-29T13:46:28;2.92;;;0.80;;
19113;SDS011;9689;51.052;13.772;2023-07-29T13:51:29;1.42;;;0.82;;
19113;SDS011;9689;51.052;13.772;2023-07-29T13:56:29;1.05;;;0.75;;
19113;SDS011;9689;51.052;13.772;2023-07-29T14:01:32;2.85;;;1.10;;
19113;SDS011;9689;51.052;13.772;2023-07-29T14:06:33;5.63;;;1.50;;
19113;SDS011;9689;51.052;13.772;2023-07-29T14:11:44;1.13;;;0.75;;
19113;SDS011;9689;51.052;13.772;2023-07-29T14:16:47;1.40;;;0.90;;
19113;SDS011;9689;51.052;13.772;2023-07-29T14:21:48;1.33;;;0.70;;
19113;SDS011;9689;51.052;13.772;2023-07-29T14:26:49;1.05;;;0.70;;
19113;SDS011;9689;51.052;13.772;2023-07-29T14:31:51;1.50;;;0.85;;
19113;SDS011;9689;51.052;13.772;2023-07-29T14:36:52;4.57;;;0.82;;
19113;SDS011;9689;51.052;13.772;2023-07-29T14:41:53;0.90;;;0.70;;
19113;SDS011;9689;51.052;13.772;2023-07-29T14:46:55;1.63;;;0.80;;
19113;SDS011;9689;51.052;13.772;2023-07-29T14:51:56;1.30;;;0.95;;
19113;SDS011;9689;51.052;13.772;2023-07-29T14:56:57;1.05;;;0.93;;
19113;SDS011;9689;51.052;13.772;2023-07-29T15:01:59;1.20;;;0.73;;
19113;SDS011;9689;51.052;13.772;2023-07-29T15:07:00;1.30;;;0.90;;
19113;SDS011;9689;51.052;13.772;2023-07-29T15:12:00;2.00;;;0.80;;
19113;SDS011;9689;51.052;13.772;2023-07-29T15:17:03;1.30;;;0.80;;
19113;SDS011;9689;51.052;13.772;2023-07-29T15:22:04;1.30;;;0.70;;
19113;SDS011;9689;51.052;13.772;2023-07-29T15:27:05;1.27;;;0.82;;
19113;SDS011;9689;51.052;13.772;2023-07-29T15:32:08;1.10;;;0.70;;
19113;SDS011;9689;51.052;13.772;2023-07-29T15:37:08;2.72;;;0.80;;
19113;SDS011;9689;51.052;13.772;2023-07-29T15:42:09;1.98;;;0.90;;
19113;SDS011;9689;51.052;13.772;2023-07-29T15:47:11;1.95;;;1.30;;
19113;SDS011;9689;51.052;13.772;2023-07-29T15:52:15;1.60;;;0.98;;
19113;SDS011;9689;51.052;13.772;2023-07-29T15:57:16;2.78;;;0.98;;
19113;SDS011;9689;51.052;13.772;2023-07-29T16:02:18;3.45;;;1.35;;
19113;SDS011;9689;51.052;13.772;2023-07-29T16:07:19;3.05;;;1.02;;
19113;SDS011;9689;51.052;13.772;2023-07-29T16:12:19;1.13;;;0.70;;
19113;SDS011;9689;51.052;13.772;2023-07-29T16:17:21;2.22;;;1.02;;
19113;SDS011;9689;51.052;13.772;2023-07-29T16:22:22;1.25;;;0.95;;
19113;SDS011;9689;51.052;13.772;2023-07-29T16:27:23;1.52;;;1.00;;
19113;SDS011;9689;51.052;13.772;2023-07-29T16:32:26;3.25;;;0.93;;
19113;SDS011;9689;51.052;13.772;2023-07-29T16:37:27;1.42;;;1.20;;
19113;SDS011;9689;51.052;13.772;2023-07-29T16:42:28;3.17;;;1.08;;
19113;SDS011;9689;51.052;13.772;2023-07-29T16:47:30;13.52;;;1.45;;
19113;SDS011;9689;51.052;13.772;2023-07-29T16:52:31;4.32;;;1.25;;
19113;SDS011;9689;51.052;13.772;2023-07-29T16:57:32;2.30;;;1.08;;
19113;SDS011;9689;51.052;13.772;2023-07-29T17:02:34;4.22;;;1.42;;
19113;SDS011;9689;51.052;13.772;2023-07-29T17:07:35;13.55;;;2.30;;
19113;SDS011;9689;51.052;13.772;2023-07-29T17:12:35;5.82;;;1.88;;
19113;SDS011;9689;51.052;13.772;2023-07-29T17:17:38;9.25;;;2.42;;
19113;SDS011;9689;51.052;13.772;2023-07-29T17:22:38;5.82;;;2.15;;
19113;SDS011;9689;51.052;13.772;2023-07-29T17:27:39;7.70;;;1.90;;
19113;SDS011;9689;51.052;13.772;2023-07-29T17:32:41;7.45;;;3.63;;
19113;SDS011;9689;51.052;13.772;2023-07-29T17:37:42;4.93;;;1.83;;
19113;SDS011;9689;51.052;13.772;2023-07-29T17:42:43;7.50;;;2.00;;
19113;SDS011;9689;51.052;13.772;2023-07-29T17:47:45;3.38;;;2.00;;
19113;SDS011;9689;51.052;13.772;2023-07-29T17:52:46;6.10;;;3.13;;
19113;SDS011;9689;51.052;13.772;2023-07-29T17:57:47;9.82;;;2.35;;
19113;SDS011;9689;51.052;13.772;2023-07-29T18:02:49;4.55;;;1.73;;
19113;SDS011;9689;51.052;13.772;2023-07-29T18:07:51;5.22;;;2.53;;
19113;SDS011;9689;51.052;13.772;2023-07-29T18:12:52;5.53;;;1.80;;
19113;SDS011;9689;51.052;13.772;2023-07-29T18:17:55;18.77;;;9.65;;
19113;SDS011;9689;51.052;13.772;2023-07-29T18:22:56;14.90;;;6.80;;
19113;SDS011;9689;51.052;13.772;2023-07-29T18:28:01;3.33;;;2.17;;
19113;SDS011;9689;51.052;13.772;2023-07-29T18:33:03;4.93;;;2.55;;
19113;SDS011;9689;51.052;13.772;2023-07-29T18:38:05;5.57;;;2.40;;
19113;SDS011;9689;51.052;13.772;2023-07-29T18:43:06;7.05;;;2.28;;
19113;SDS011;9689;51.052;13.772;2023-07-29T18:48:10;6.15;;;2.50;;
19113;SDS011;9689;51.052;13.772;2023-07-29T18:53:11;5.20;;;2.30;;
19113;SDS011;9689;51.052;13.772;2023-07-29T18:58:11;6.88;;;2.90;;
19113;SDS011;9689;51.052;13.772;2023-07-29T19:03:13;5.93;;;2.80;;
19113;SDS011;9689;51.052;13.772;2023-07-29T19:08:14;5.47;;;2.90;;
19113;SDS011;9689;51.052;13.772;2023-07-29T19:13:15;3.88;;;2.88;;
19113;SDS011;9689;51.052;13.772;2023-07-29T19:18:17;5.25;;;3.00;;
19113;SDS011;9689;51.052;13.772;2023-07-29T19:23:18;5.68;;;2.70;;
19113;SDS011;9689;51.052;13.772;2023-07-29T19:28:19;7.35;;;3.15;;
19113;SDS011;9689;51.052;13.772;2023-07-29T19:33:22;5.55;;;3.20;;
19113;SDS011;9689;51.052;13.772;2023-07-29T19:38:23;8.45;;;3.13;;
19113;SDS011;9689;51.052;13.772;2023-07-29T19:43:24;7.63;;;2.38;;
19113;SDS011;9689;51.052;13.772;2023-07-29T19:48:26;14.88;;;9.38;;
19113;SDS011;9689;51.052;13.772;2023-07-29T19:53:27;4.72;;;3.25;;
19113;SDS011;9689;51.052;13.772;2023-07-29T19:58:29;6.78;;;2.92;;
19113;SDS011;9689;51.052;13.772;2023-07-29T20:03:31;4.05;;;2.30;;
19113;SDS011;9689;51.052;13.772;2023-07-29T20:08:33;5.68;;;2.60;;
19113;SDS011;9689;51.052;13.772;2023-07-29T20:13:33;4.50;;;2.80;;
19113;SDS011;9689;51.052;13.772;2023-07-29T20:18:36;9.45;;;4.95;;
19113;SDS011;9689;51.052;13.772;2023-07-29T20:23:39;5.55;;;2.58;;
19113;SDS011;9689;51.052;13.772;2023-07-29T20:28:40;4.13;;;2.22;;
19113;SDS011;9689;51.052;13.772;2023-07-29T20:33:42;4.22;;;2.53;;
19113;SDS011;9689;51.052;13.772;2023-07-29T20:38:42;4.57;;;2.33;;
19113;SDS011;9689;51.052;13.772;2023-07-29T20:43:43;8.85;;;2.47;;
19113;SDS011;9689;51.052;13.772;2023-07-29T20:48:45;3.20;;;1.90;;
19113;SDS011;9689;51.052;13.772;2023-07-29T20:53:46;4.10;;;2.70;;
19113;SDS011;9689;51.052;13.772;2023-07-29T20:58:47;2.63;;;2.08;;
19113;SDS011;9689;51.052;13.772;2023-07-29T21:03:49;4.35;;;2.60;;
19113;SDS011;9689;51.052;13.772;2023-07-29T21:08:50;9.77;;;6.18;;
19113;SDS011;9689;51.052;13.772;2023-07-29T21:13:51;6.50;;;2.83;;
19113;SDS011;9689;51.052;13.772;2023-07-29T21:18:53;5.03;;;2.25;;
19113;SDS011;9689;51.052;13.772;2023-07-29T21:23:54;3.28;;;2.03;;
19113;SDS011;9689;51.052;13.772;2023-07-29T21:28:56;4.20;;;2.10;;
19113;SDS011;9689;51.052;13.772;2023-07-29T21:33:58;7.30;;;1.95;;
19113;SDS011;9689;51.052;13.772;2023-07-29T21:38:59;3.80;;;1.80;;
19113;SDS011;9689;51.052;13.772;2023-07-29T21:43:59;2.70;;;2.00;;
19113;SDS011;9689;51.052;13.772;2023-07-29T21:49:01;4.88;;;2.00;;
19113;SDS011;9689;51.052;13.772;2023-07-29T21:54:02;2.72;;;2.03;;
19113;SDS011;9689;51.052;13.772;2023-07-29T21:59:03;4.18;;;1.83;;
19113;SDS011;9689;51.052;13.772;2023-07-29T22:04:05;4.20;;;2.58;;
19113;SDS011;9689;51.052;13.772;2023-07-29T22:09:06;5.45;;;2.40;;
19113;SDS011;9689;51.052;13.772;2023-07-29T22:14:07;3.25;;;2.10;;
19113;SDS011;9689;51.052;13.772;2023-07-29T22:19:09;2.70;;;1.90;;
19113;SDS011;9689;51.052;13.772;2023-07-29T22:24:10;7.32;;;2.10;;
19113;SDS011;9689;51.052;13.772;2023-07-29T22:29:11;3.15;;;1.90;;
19113;SDS011;9689;51.052;13.772;2023-07-29T22:34:14;3.22;;;2.10;;
19113;SDS011;9689;51.052;13.772;2023-07-29T22:39:14;3.88;;;2.00;;
19113;SDS011;9689;51.052;13.772;2023-07-29T22:44:15;6.45;;;2.45;;
19113;SDS011;9689;51.052;13.772;2023-07-29T22:49:17;4.55;;;2.10;;
19113;SDS011;9689;51.052;13.772;2023-07-29T22:54:18;5.70;;;2.03;;
19113;SDS011;9689;51.052;13.772;2023-07-29T22:59:19;3.38;;;1.92;;
19113;SDS011;9689;51.052;13.772;2023-07-29T23:04:21;5.07;;;2.20;;
19113;SDS011;9689;51.052;13.772;2023-07-29T23:09:22;13.02;;;2.28;;
19113;SDS011;9689;51.052;13.772;2023-07-29T23:14:24;4.82;;;2.10;;
19113;SDS011;9689;51.052;13.772;2023-07-29T23:19:26;4.85;;;2.42;;
19113;SDS011;9689;51.052;13.772;2023-07-29T23:24:27;2.80;;;2.10;;
19113;SDS011;9689;51.052;13.772;2023-07-29T23:29:28;4.28;;;2.53;;
19113;SDS011;9689;51.052;13.772;2023-07-29T23:34:30;3.97;;;2.10;;
19113;SDS011;9689;51.052;13.772;2023-07-29T23:39:30;3.50;;;2.20;;
19113;SDS011;9689;51.052;13.772;2023-07-29T23:44:31;4.55;;;2.65;;
19113;SDS011;9689;51.052;13.772;2023-07-29T23:49:33;6.82;;;2.30;;
19113;SDS011;9689;51.052;13.772;2023-07-29T23:54:34;3.83;;;2.63;;
19113;SDS011;9689;51.052;13.772;2023-07-29T23:59:35;5.47;;;2.80;;
